Terminal Aerodrome Forecast
Issued by NWS

Home | Current Version | Previous Version | Text Only | Print | Product List | Glossary On
Versions: 1 2 3 4 5 6 7 8 9 10 11 12 13 14 15 16 17 18 19
000
FTUS42 KTAE 180521
TAFABY
TAF
KABY 180521Z 1806/1906 00000KT 6SM BR SCT004 OVC050
     FM180800 00000KT 1SM BR OVC001
      TEMPO 1808/1812 1/2SM FG
     FM181500 28006KT P6SM SCT003 BKN040
     FM181800 28007KT P6SM BKN040
     FM190200 00000KT P6SM SCT040 BKN250=

USA.gov is the U.S. government's official web portal to all federal, state and local government web resources and services.